< < Back
Terminal Aerodrome Forecast


Current Version              Previous Versions:   1  2  3  4  5  6  7  8  9  

Terminal Aerodrome Forecast

989
FTUS42 KMLB 011400 AAA
TAFMCO
TAF AMD
KMCO 011449Z 0115/0212 12005KT P6SM FEW025
     FM012000 11008KT P6SM VCSH SCT040 SCT070
     FM020000 11005KT P6SM FEW040 SCT250=



Latest METAR

660
SAUS70 KWBC 012000 RRX
MTRMCO
METAR KMCO 011953Z 10012KT 10SM SCT050 BKN090 34/22 A3005 RMK AO2 SLP175
T03390222


USA.gov is the U.S. government's official web portal to all federal, state and local government web resources and services.